Time,TemperatureF,DewpointF,PressureIn,WindDirection,WindDirectionDegrees,WindSpeedMPH,WindSpeedGustMPH,Humidity,HourlyPrecipIn,Conditions,Clouds,dailyrainin,SoftwareType,DateUTC
2015-05-29 00:02:00,70.7,67.3,30.12,SE,124,0.0,0.0,89,0.00,,,0.00,VWS V15.00,2015-05-29 04:02:00,
2015-05-29 00:12:00,70.6,67.5,30.12,SE,124,0.0,0.0,90,0.00,,,0.00,VWS V15.00,2015-05-29 04:12:00,
2015-05-29 00:17:00,70.6,67.5,30.12,SE,124,0.0,1.0,90,0.00,,,0.00,VWS V15.00,2015-05-29 04:17:00,
2015-05-29 00:22:00,70.6,67.5,30.12,SE,124,0.0,1.0,90,0.00,,,0.00,VWS V15.00,2015-05-29 04:22:00,
2015-05-29 00:27:00,70.5,67.4,30.12,SE,124,0.0,1.0,90,0.00,,,0.00,VWS V15.00,2015-05-29 04:27:00,
2015-05-29 00:32:00,70.4,67.3,30.12,SE,124,0.0,0.0,90,0.00,,,0.00,VWS V15.00,2015-05-29 04:32:00,
2015-05-29 00:37:00,70.3,67.2,30.12,SE,124,0.0,0.0,90,0.00,,,0.00,VWS V15.00,2015-05-29 04:37:00,
2015-05-29 00:42:00,70.3,67.2,30.11,SE,124,0.0,0.0,90,0.00,,,0.00,VWS V15.00,2015-05-29 04:42:00,
2015-05-29 00:47:00,70.2,67.1,30.11,SE,124,0.0,0.0,90,0.00,,,0.00,VWS V15.00,2015-05-29 04:47:00,
2015-05-29 00:52:00,70.1,67.0,30.11,SE,124,0.0,0.0,90,0.00,,,0.00,VWS V15.00,2015-05-29 04:52:00,
2015-05-29 00:57:00,70.1,67.4,30.11,SE,124,0.0,0.0,91,0.00,,,0.00,VWS V15.00,2015-05-29 04:57:00,
2015-05-29 01:02:00,70.1,67.4,30.10,SE,124,0.0,0.0,91,0.00,,,0.00,VWS V15.00,2015-05-29 05:02:00,
2015-05-29 01:12:00,70.0,67.3,30.10,SE,124,0.0,0.0,91,0.00,,,0.00,VWS V15.00,2015-05-29 05:12:00,
2015-05-29 01:17:00,70.0,66.9,30.10,SE,124,0.0,0.0,90,0.00,,,0.00,VWS V15.00,2015-05-29 05:17:00,
2015-05-29 01:22:00,70.0,66.9,30.09,SE,124,0.0,0.0,90,0.00,,,0.00,VWS V15.00,2015-05-29 05:22:00,
2015-05-29 01:27:00,70.0,66.9,30.09,SE,124,0.0,0.0,90,0.00,,,0.00,VWS V15.00,2015-05-29 05:27:00,
2015-05-29 01:32:00,69.9,66.8,30.09,SE,124,0.0,0.0,90,0.00,,,0.00,VWS V15.00,2015-05-29 05:32:00,
2015-05-29 01:37:00,69.9,66.8,30.09,SE,124,0.0,0.0,90,0.00,,,0.00,VWS V15.00,2015-05-29 05:37:00,
2015-05-29 01:42:00,69.9,66.8,30.09,SE,124,0.0,0.0,90,0.00,,,0.00,VWS V15.00,2015-05-29 05:42:00,
2015-05-29 01:47:00,69.9,66.8,30.09,SE,124,0.0,0.0,90,0.00,,,0.00,VWS V15.00,2015-05-29 05:47:00,
2015-05-29 01:52:00,69.7,66.6,30.09,SE,124,0.0,0.0,90,0.00,,,0.00,VWS V15.00,2015-05-29 05:52:00,
2015-05-29 01:57:00,69.6,66.5,30.09,SE,124,0.0,0.0,90,0.00,,,0.00,VWS V15.00,2015-05-29 05:57:00,
2015-05-29 02:02:00,69.5,66.4,30.09,SE,124,0.0,0.0,90,0.00,,,0.00,VWS V15.00,2015-05-29 06:02:00,
2015-05-29 02:12:00,69.5,66.8,30.08,SE,124,0.0,0.0,91,0.00,,,0.00,VWS V15.00,2015-05-29 06:12:00,
2015-05-29 02:17:00,69.6,66.9,30.08,SE,124,0.0,0.0,91,0.00,,,0.00,VWS V15.00,2015-05-29 06:17:00,
2015-05-29 02:22:00,69.6,66.9,30.09,SE,124,0.0,0.0,91,0.00,,,0.00,VWS V15.00,2015-05-29 06:22:00,
2015-05-29 02:27:00,69.7,67.0,30.09,SE,124,0.0,0.0,91,0.00,,,0.00,VWS V15.00,2015-05-29 06:27:00,
2015-05-29 02:32:00,69.7,67.0,30.09,SE,124,0.0,1.0,91,0.00,,,0.00,VWS V15.00,2015-05-29 06:32:00,
2015-05-29 02:37:00,69.6,66.9,30.09,SE,133,0.0,2.0,91,0.00,,,0.00,VWS V15.00,2015-05-29 06:37:00,
2015-05-29 02:42:00,69.5,66.4,30.09,South,170,0.0,4.0,90,0.01,,,0.01,VWS V15.00,2015-05-29 06:42:00,
2015-05-29 02:47:00,69.1,66.1,30.09,SSE,152,0.0,4.0,90,0.01,,,0.01,VWS V15.00,2015-05-29 06:47:00,
2015-05-29 02:52:00,68.7,65.3,30.08,SE,127,0.0,5.0,89,0.01,,,0.01,VWS V15.00,2015-05-29 06:52:00,
2015-05-29 02:57:00,68.5,65.8,30.09,SE,127,2.0,5.0,91,0.01,,,0.01,VWS V15.00,2015-05-29 06:57:00,
2015-05-29 03:02:00,68.3,65.6,30.09,SE,127,0.0,1.0,91,0.01,,,0.01,VWS V15.00,2015-05-29 07:02:00,
2015-05-29 03:12:00,68.1,65.7,30.10,SSE,159,0.0,0.0,92,0.03,,,0.03,VWS V15.00,2015-05-29 07:12:00,
2015-05-29 03:17:00,68.0,65.9,30.10,SSE,159,0.0,0.0,93,0.03,,,0.03,VWS V15.00,2015-05-29 07:17:00,
2015-05-29 03:22:00,67.8,65.7,30.09,SSE,159,0.0,1.0,93,0.04,,,0.04,VWS V15.00,2015-05-29 07:22:00,
2015-05-29 03:27:00,67.6,65.5,30.09,SSE,159,0.0,1.0,93,0.06,,,0.06,VWS V15.00,2015-05-29 07:27:00,
2015-05-29 03:32:00,67.6,65.8,30.10,SSE,159,0.0,0.0,94,0.07,,,0.07,VWS V15.00,2015-05-29 07:32:00,
2015-05-29 03:37:00,67.5,65.7,30.09,SSE,148,0.0,4.0,94,0.15,,,0.15,VWS V15.00,2015-05-29 07:37:00,
2015-05-29 03:45:00,67.5,66.0,30.08,SSE,148,0.0,1.0,95,0.23,,,0.23,VWS V15.00,2015-05-29 07:45:00,
2015-05-29 03:50:00,67.4,65.9,30.08,SE,127,0.0,0.0,95,0.23,,,0.24,VWS V15.00,2015-05-29 07:50:00,
2015-05-29 03:55:00,67.5,66.0,30.08,SE,127,0.0,1.0,95,0.23,,,0.24,VWS V15.00,2015-05-29 07:55:00,
2015-05-29 04:00:00,67.4,66.2,30.08,SE,127,0.0,0.0,96,0.23,,,0.24,VWS V15.00,2015-05-29 08:00:00,
2015-05-29 04:05:00,67.4,66.2,30.08,SE,127,0.0,1.0,96,0.23,,,0.24,VWS V15.00,2015-05-29 08:05:00,
2015-05-29 04:12:00,67.3,66.1,30.08,SE,127,0.0,0.0,96,0.22,,,0.24,VWS V15.00,2015-05-29 08:12:00,
2015-05-29 04:17:00,67.4,66.2,30.08,SE,127,0.0,0.0,96,0.22,,,0.24,VWS V15.00,2015-05-29 08:17:00,
2015-05-29 04:22:00,67.3,66.1,30.08,SE,127,0.0,0.0,96,0.20,,,0.24,VWS V15.00,2015-05-29 08:22:00,
2015-05-29 04:27:00,67.3,66.1,30.08,SE,127,0.0,0.0,96,0.20,,,0.24,VWS V15.00,2015-05-29 08:27:00,
2015-05-29 04:32:00,67.2,66.0,30.08,SE,127,0.0,1.0,96,0.18,,,0.24,VWS V15.00,2015-05-29 08:32:00,
2015-05-29 04:37:00,67.3,66.4,30.08,SE,127,0.0,1.0,97,0.18,,,0.24,VWS V15.00,2015-05-29 08:37:00,
2015-05-29 04:42:00,67.3,66.4,30.09,SE,127,0.0,0.0,97,0.07,,,0.24,VWS V15.00,2015-05-29 08:42:00,
2015-05-29 04:47:00,67.4,66.5,30.09,SE,127,0.0,0.0,97,0.07,,,0.24,VWS V15.00,2015-05-29 08:47:00,
2015-05-29 04:52:00,67.4,66.5,30.09,SE,127,0.0,0.0,97,0.01,,,0.24,VWS V15.00,2015-05-29 08:52:00,
2015-05-29 04:57:00,67.4,66.5,30.09,SE,127,0.0,0.0,97,0.01,,,0.24,VWS V15.00,2015-05-29 08:57:00,
2015-05-29 05:02:00,67.4,66.5,30.08,SE,127,0.0,1.0,97,0.00,,,0.24,VWS V15.00,2015-05-29 09:02:00,
2015-05-29 05:12:00,67.3,66.4,30.08,SE,127,2.0,2.0,97,0.00,,,0.24,VWS V15.00,2015-05-29 09:12:00,
2015-05-29 05:17:00,67.3,66.4,30.08,SE,127,0.0,2.0,97,0.00,,,0.24,VWS V15.00,2015-05-29 09:17:00,
2015-05-29 05:22:00,67.3,66.4,30.08,SE,127,0.0,0.0,97,0.00,,,0.24,VWS V15.00,2015-05-29 09:22:00,
2015-05-29 05:27:00,67.2,66.3,30.08,SE,127,0.0,1.0,97,0.00,,,0.24,VWS V15.00,2015-05-29 09:27:00,
2015-05-29 05:32:00,67.1,66.2,30.08,SE,127,0.0,0.0,97,0.00,,,0.24,VWS V15.00,2015-05-29 09:32:00,
2015-05-29 05:37:00,67.0,66.1,30.08,SE,127,0.0,1.0,97,0.00,,,0.24,VWS V15.00,2015-05-29 09:37:00,
2015-05-29 05:42:00,67.0,66.1,30.08,SE,127,0.0,0.0,97,0.00,,,0.24,VWS V15.00,2015-05-29 09:42:00,
2015-05-29 05:47:00,67.0,66.1,30.08,SE,127,0.0,0.0,97,0.00,,,0.24,VWS V15.00,2015-05-29 09:47:00,
2015-05-29 05:52:00,66.9,66.0,30.09,SE,127,0.0,1.0,97,0.00,,,0.24,VWS V15.00,2015-05-29 09:52:00,
2015-05-29 05:57:00,66.9,66.0,30.09,SE,127,0.0,1.0,97,0.00,,,0.24,VWS V15.00,2015-05-29 09:57:00,
2015-05-29 06:02:00,66.8,65.9,30.09,SE,127,4.0,4.0,97,0.00,,,0.24,VWS V15.00,2015-05-29 10:02:00,
2015-05-29 06:12:00,66.8,65.9,30.09,SE,129,0.0,4.0,97,0.00,,,0.24,VWS V15.00,2015-05-29 10:12:00,
2015-05-29 06:17:00,66.8,65.9,30.09,SE,126,2.0,4.0,97,0.00,,,0.24,VWS V15.00,2015-05-29 10:17:00,
2015-05-29 06:22:00,66.7,65.8,30.09,SE,131,5.0,5.0,97,0.00,,,0.24,VWS V15.00,2015-05-29 10:22:00,
2015-05-29 06:27:00,66.7,65.8,30.09,SE,128,0.0,7.0,97,0.00,,,0.24,VWS V15.00,2015-05-29 10:27:00,
2015-05-29 06:32:00,66.6,65.7,30.09,SE,126,2.0,5.0,97,0.00,,,0.24,VWS V15.00,2015-05-29 10:32:00,
2015-05-29 06:37:00,66.5,65.9,30.09,ESE,120,0.0,5.0,98,0.00,,,0.24,VWS V15.00,2015-05-29 10:37:00,
2015-05-29 06:42:00,66.5,65.9,30.10,ESE,121,0.0,4.0,98,0.00,,,0.24,VWS V15.00,2015-05-29 10:42:00,
2015-05-29 06:47:00,66.5,65.9,30.10,SE,126,5.0,5.0,98,0.00,,,0.24,VWS V15.00,2015-05-29 10:47:00,
2015-05-29 06:52:00,66.6,66.0,30.10,ESE,119,2.0,5.0,98,0.00,,,0.24,VWS V15.00,2015-05-29 10:52:00,
2015-05-29 06:57:00,66.6,66.0,30.10,ESE,122,4.0,5.0,98,0.00,,,0.24,VWS V15.00,2015-05-29 10:57:00,
2015-05-29 07:02:00,66.7,66.1,30.10,ESE,120,2.0,4.0,98,0.00,,,0.24,VWS V15.00,2015-05-29 11:02:00,
2015-05-29 07:12:00,66.9,66.3,30.10,ESE,120,0.0,1.0,98,0.00,,,0.24,VWS V15.00,2015-05-29 11:12:00,
2015-05-29 07:17:00,67.0,66.4,30.10,ESE,120,4.0,4.0,98,0.00,,,0.24,VWS V15.00,2015-05-29 11:17:00,
2015-05-29 07:22:00,67.1,66.5,30.10,SE,126,0.0,4.0,98,0.00,,,0.24,VWS V15.00,2015-05-29 11:22:00,
2015-05-29 07:27:00,67.2,66.6,30.11,ESE,123,0.0,4.0,98,0.00,,,0.24,VWS V15.00,2015-05-29 11:27:00,
2015-05-29 07:32:00,67.3,66.7,30.10,ESE,123,2.0,2.0,98,0.00,,,0.24,VWS V15.00,2015-05-29 11:32:00,
2015-05-29 07:37:00,67.5,66.9,30.11,ESE,123,0.0,5.0,98,0.00,,,0.24,VWS V15.00,2015-05-29 11:37:00,
2015-05-29 07:42:00,67.7,67.1,30.11,ESE,123,0.0,4.0,98,0.00,,,0.24,VWS V15.00,2015-05-29 11:42:00,
2015-05-29 07:47:00,68.0,67.4,30.11,ESE,123,0.0,4.0,98,0.00,,,0.24,VWS V15.00,2015-05-29 11:47:00,
2015-05-29 07:52:00,68.2,67.6,30.11,ESE,123,0.0,1.0,98,0.00,,,0.24,VWS V15.00,2015-05-29 11:52:00,
2015-05-29 07:57:00,68.2,67.3,30.11,SE,126,0.0,7.0,97,0.00,,,0.24,VWS V15.00,2015-05-29 11:57:00,
2015-05-29 08:02:00,68.4,67.5,30.11,SE,126,0.0,0.0,97,0.00,,,0.24,VWS V15.00,2015-05-29 12:02:00,
2015-05-29 08:12:00,68.4,67.5,30.11,SE,126,0.0,1.0,97,0.00,,,0.24,VWS V15.00,2015-05-29 12:12:00,
2015-05-29 08:17:00,68.3,67.4,30.11,SE,126,0.0,1.0,97,0.00,,,0.24,VWS V15.00,2015-05-29 12:17:00,
2015-05-29 08:22:00,68.3,67.4,30.11,SE,126,0.0,1.0,97,0.00,,,0.24,VWS V15.00,2015-05-29 12:22:00,
2015-05-29 08:27:00,68.5,67.6,30.10,SE,126,0.0,2.0,97,0.00,,,0.24,VWS V15.00,2015-05-29 12:27:00,
2015-05-29 08:32:00,68.5,67.6,30.10,SE,126,0.0,0.0,97,0.00,,,0.24,VWS V15.00,2015-05-29 12:32:00,
2015-05-29 08:37:00,68.7,67.5,30.10,SE,126,0.0,1.0,96,0.00,,,0.24,VWS V15.00,2015-05-29 12:37:00,
2015-05-29 08:42:00,68.7,67.5,30.10,ESE,121,0.0,4.0,96,0.00,,,0.24,VWS V15.00,2015-05-29 12:42:00,
2015-05-29 08:47:00,68.6,67.4,30.10,SE,124,0.0,4.0,96,0.00,,,0.24,VWS V15.00,2015-05-29 12:47:00,
2015-05-29 08:52:00,68.9,67.7,30.10,SE,124,0.0,0.0,96,0.00,,,0.24,VWS V15.00,2015-05-29 12:52:00,
2015-05-29 08:57:00,69.3,68.1,30.10,ESE,113,0.0,4.0,96,0.00,,,0.24,VWS V15.00,2015-05-29 12:57:00,
2015-05-29 09:02:00,69.4,67.9,30.10,ESE,113,0.0,4.0,95,0.00,,,0.24,VWS V15.00,2015-05-29 13:02:00,
2015-05-29 09:12:00,69.4,67.9,30.10,ESE,117,0.0,1.0,95,0.00,,,0.24,VWS V15.00,2015-05-29 13:12:00,
2015-05-29 09:17:00,69.4,67.6,30.10,SSE,155,2.0,2.0,94,0.00,,,0.24,VWS V15.00,2015-05-29 13:17:00,
2015-05-29 09:22:00,69.4,67.6,30.10,SSE,154,0.0,1.0,94,0.00,,,0.24,VWS V15.00,2015-05-29 13:22:00,
2015-05-29 09:27:00,69.6,67.8,30.10,SSE,155,0.0,1.0,94,0.00,,,0.24,VWS V15.00,2015-05-29 13:27:00,
2015-05-29 09:32:00,69.8,68.0,30.10,SSE,155,0.0,0.0,94,0.00,,,0.24,VWS V15.00,2015-05-29 13:32:00,
2015-05-29 09:37:00,70.1,68.3,30.10,SSE,155,0.0,1.0,94,0.00,,,0.24,VWS V15.00,2015-05-29 13:37:00,
2015-05-29 09:42:00,70.4,68.3,30.11,SSE,155,0.0,1.0,93,0.00,,,0.24,VWS V15.00,2015-05-29 13:42:00,
2015-05-29 09:47:00,70.4,68.0,30.10,SE,146,0.0,2.0,92,0.00,,,0.24,VWS V15.00,2015-05-29 13:47:00,
2015-05-29 09:52:00,70.6,68.2,30.11,SSE,148,0.0,1.0,92,0.00,,,0.24,VWS V15.00,2015-05-29 13:52:00,
2015-05-29 09:57:00,70.8,68.1,30.11,WSW,238,3.0,3.0,91,0.00,,,0.24,VWS V15.00,2015-05-29 13:57:00,
2015-05-29 10:02:00,70.8,68.1,30.11,SW,215,0.0,1.0,91,0.00,,,0.24,VWS V15.00,2015-05-29 14:02:00,
2015-05-29 10:12:00,71.7,69.3,30.11,SSW,198,0.0,2.0,92,0.00,,,0.24,VWS V15.00,2015-05-29 14:12:00,
2015-05-29 10:17:00,72.0,69.2,30.11,SSW,198,0.0,2.0,91,0.00,,,0.24,VWS V15.00,2015-05-29 14:17:00,
2015-05-29 10:22:00,72.3,68.9,30.11,South,189,0.0,1.0,89,0.00,,,0.24,VWS V15.00,2015-05-29 14:22:00,
2015-05-29 10:27:00,72.7,69.6,30.12,SE,136,0.0,6.0,90,0.00,,,0.24,VWS V15.00,2015-05-29 14:27:00,
2015-05-29 10:32:00,72.9,69.1,30.12,SSW,195,0.0,1.0,88,0.00,,,0.24,VWS V15.00,2015-05-29 14:32:00,
2015-05-29 10:37:00,73.0,69.2,30.12,SSW,199,0.0,2.0,88,0.00,,,0.24,VWS V15.00,2015-05-29 14:37:00,
2015-05-29 10:42:00,73.1,69.3,30.12,SSW,201,1.0,5.0,88,0.00,,,0.24,VWS V15.00,2015-05-29 14:42:00,
2015-05-29 10:47:00,73.1,69.3,30.12,WSW,249,5.0,5.0,88,0.00,,,0.24,VWS V15.00,2015-05-29 14:47:00,
2015-05-29 10:52:00,73.2,69.4,30.12,SW,233,0.0,3.0,88,0.00,,,0.24,VWS V15.00,2015-05-29 14:52:00,
2015-05-29 10:57:00,73.3,69.2,30.12,WSW,238,0.0,4.0,87,0.00,,,0.24,VWS V15.00,2015-05-29 14:57:00,
2015-05-29 11:02:00,73.2,69.1,30.12,WSW,254,4.0,5.0,87,0.00,,,0.24,VWS V15.00,2015-05-29 15:02:00,
2015-05-29 11:12:00,73.0,68.9,30.12,WSW,248,0.0,4.0,87,0.00,,,0.24,VWS V15.00,2015-05-29 15:12:00,
2015-05-29 11:17:00,73.1,69.0,30.12,WSW,245,2.0,4.0,87,0.00,,,0.24,VWS V15.00,2015-05-29 15:17:00,
2015-05-29 11:22:00,73.3,69.5,30.13,WSW,237,3.0,3.0,88,0.00,,,0.24,VWS V15.00,2015-05-29 15:22:00,
2015-05-29 11:27:00,73.4,69.3,30.13,SW,215,0.0,4.0,87,0.00,,,0.24,VWS V15.00,2015-05-29 15:27:00,
2015-05-29 11:32:00,73.5,68.7,30.13,SW,223,0.0,2.0,85,0.00,,,0.24,VWS V15.00,2015-05-29 15:32:00,
2015-05-29 11:37:00,73.6,68.8,30.13,SW,231,0.0,3.0,85,0.00,,,0.24,VWS V15.00,2015-05-29 15:37:00,
2015-05-29 11:42:00,73.9,69.4,30.13,SSW,195,0.0,4.0,86,0.00,,,0.24,VWS V15.00,2015-05-29 15:42:00,
2015-05-29 11:47:00,74.1,69.3,30.13,WSW,246,0.0,5.0,85,0.00,,,0.24,VWS V15.00,2015-05-29 15:47:00,
2015-05-29 11:52:00,74.4,69.6,30.13,WSW,238,3.0,4.0,85,0.00,,,0.24,VWS V15.00,2015-05-29 15:52:00,
2015-05-29 11:57:00,74.7,69.2,30.13,West,260,0.0,6.0,83,0.00,,,0.24,VWS V15.00,2015-05-29 15:57:00,
2015-05-29 12:02:00,75.0,69.1,30.13,WSW,244,0.0,4.0,82,0.00,,,0.24,VWS V15.00,2015-05-29 16:02:00,
2015-05-29 12:12:00,75.6,70.1,30.13,SW,228,0.0,0.0,83,0.00,,,0.24,VWS V15.00,2015-05-29 16:12:00,
2015-05-29 12:17:00,75.9,70.0,30.13,SW,214,0.0,1.0,82,0.00,,,0.24,VWS V15.00,2015-05-29 16:17:00,
2015-05-29 12:22:00,76.0,69.8,30.13,ESE,117,1.0,5.0,81,0.00,,,0.24,VWS V15.00,2015-05-29 16:22:00,
2015-05-29 12:27:00,76.2,69.9,30.13,SE,129,0.0,5.0,81,0.00,,,0.24,VWS V15.00,2015-05-29 16:27:00,
2015-05-29 12:32:00,76.3,70.1,30.13,SSW,192,0.0,1.0,81,0.00,,,0.24,VWS V15.00,2015-05-29 16:32:00,
2015-05-29 12:37:00,76.3,70.1,30.13,SW,220,1.0,5.0,81,0.00,,,0.24,VWS V15.00,2015-05-29 16:37:00,
2015-05-29 12:42:00,76.3,68.9,30.13,SW,229,1.0,4.0,78,0.00,,,0.24,VWS V15.00,2015-05-29 16:42:00,
2015-05-29 12:47:00,76.4,69.0,30.13,South,188,0.0,8.0,78,0.00,,,0.24,VWS V15.00,2015-05-29 16:47:00,
2015-05-29 12:52:00,76.4,69.4,30.13,SW,235,0.0,4.0,79,0.00,,,0.24,VWS V15.00,2015-05-29 16:52:00,
2015-05-29 12:57:00,76.5,69.1,30.13,WSW,241,2.0,4.0,78,0.00,,,0.24,VWS V15.00,2015-05-29 16:57:00,
2015-05-29 13:02:00,76.6,69.6,30.12,SW,216,0.0,1.0,79,0.00,,,0.24,VWS V15.00,2015-05-29 17:02:00,
2015-05-29 13:12:00,77.1,69.7,30.12,South,184,0.0,2.0,78,0.00,,,0.24,VWS V15.00,2015-05-29 17:12:00,
2015-05-29 13:17:00,77.3,69.9,30.12,SSW,204,0.0,2.0,78,0.00,,,0.24,VWS V15.00,2015-05-29 17:17:00,
2015-05-29 13:22:00,77.5,69.7,30.12,SSE,149,0.0,6.0,77,0.00,,,0.24,VWS V15.00,2015-05-29 17:22:00,
2015-05-29 13:27:00,77.8,70.0,30.11,SSW,212,0.0,6.0,77,0.00,,,0.24,VWS V15.00,2015-05-29 17:27:00,
2015-05-29 13:32:00,77.8,69.6,30.11,SW,217,3.0,3.0,76,0.00,,,0.24,VWS V15.00,2015-05-29 17:32:00,
2015-05-29 13:37:00,77.9,70.1,30.11,SE,126,0.0,6.0,77,0.00,,,0.24,VWS V15.00,2015-05-29 17:37:00,
2015-05-29 13:42:00,78.2,71.2,30.10,SE,125,0.0,1.0,79,0.00,,,0.24,VWS V15.00,2015-05-29 17:42:00,
2015-05-29 13:47:00,78.3,69.3,30.10,SSE,148,0.0,1.0,74,0.00,,,0.24,VWS V15.00,2015-05-29 17:47:00,
2015-05-29 13:52:00,78.4,69.8,30.10,SSE,153,1.0,1.0,75,0.00,,,0.24,VWS V15.00,2015-05-29 17:52:00,
2015-05-29 13:57:00,78.7,70.1,30.10,South,178,0.0,4.0,75,0.00,,,0.24,VWS V15.00,2015-05-29 17:57:00,
2015-05-29 14:02:00,79.1,69.7,30.10,SE,144,0.0,6.0,73,0.00,,,0.24,VWS V15.00,2015-05-29 18:02:00,
2015-05-29 14:12:00,79.8,70.0,30.09,SW,229,0.0,11.0,72,0.00,,,0.24,VWS V15.00,2015-05-29 18:12:00,
2015-05-29 14:17:00,80.1,69.4,30.09,SSW,211,0.0,11.0,70,0.00,,,0.24,VWS V15.00,2015-05-29 18:17:00,
2015-05-29 14:22:00,79.7,69.5,30.08,SW,223,0.0,3.0,71,0.00,,,0.24,VWS V15.00,2015-05-29 18:22:00,
2015-05-29 14:27:00,79.8,70.0,30.08,SW,225,2.0,5.0,72,0.00,,,0.24,VWS V15.00,2015-05-29 18:27:00,
2015-05-29 14:32:00,79.9,69.7,30.08,SSW,197,2.0,7.0,71,0.00,,,0.24,VWS V15.00,2015-05-29 18:32:00,
2015-05-29 14:37:00,80.0,69.3,30.08,SSW,200,2.0,7.0,70,0.00,,,0.24,VWS V15.00,2015-05-29 18:37:00,
2015-05-29 14:42:00,80.1,68.2,30.08,West,276,8.0,8.0,67,0.00,,,0.24,VWS V15.00,2015-05-29 18:42:00,
2015-05-29 14:47:00,80.2,68.3,30.08,WSW,254,0.0,9.0,67,0.00,,,0.24,VWS V15.00,2015-05-29 18:47:00,
2015-05-29 14:52:00,80.2,68.7,30.07,SSW,194,0.0,4.0,68,0.00,,,0.24,VWS V15.00,2015-05-29 18:52:00,
2015-05-29 14:57:00,80.5,69.4,30.07,WSW,242,0.0,7.0,69,0.00,,,0.24,VWS V15.00,2015-05-29 18:57:00,
2015-05-29 15:02:00,80.8,68.4,30.07,WSW,240,0.0,7.0,66,0.00,,,0.24,VWS V15.00,2015-05-29 19:02:00,
2015-05-29 15:12:00,80.9,69.4,30.06,WSW,251,0.0,5.0,68,0.00,,,0.24,VWS V15.00,2015-05-29 19:12:00,
2015-05-29 15:17:00,81.4,69.8,30.06,SW,219,0.0,5.0,68,0.00,,,0.24,VWS V15.00,2015-05-29 19:17:00,
2015-05-29 15:22:00,81.8,69.3,30.06,WSW,252,0.0,6.0,66,0.00,,,0.24,VWS V15.00,2015-05-29 19:22:00,
2015-05-29 15:27:00,82.0,69.5,30.06,SE,126,0.0,6.0,66,0.00,,,0.24,VWS V15.00,2015-05-29 19:27:00,
2015-05-29 15:32:00,82.1,70.5,30.06,SSW,195,0.0,3.0,68,0.00,,,0.24,VWS V15.00,2015-05-29 19:32:00,
2015-05-29 15:37:00,82.2,69.7,30.06,WSW,241,0.0,6.0,66,0.00,,,0.24,VWS V15.00,2015-05-29 19:37:00,
2015-05-29 15:42:00,81.8,69.3,30.05,SSW,192,0.0,4.0,66,0.00,,,0.24,VWS V15.00,2015-05-29 19:42:00,
2015-05-29 15:47:00,81.6,70.0,30.05,SSW,195,0.0,6.0,68,0.00,,,0.24,VWS V15.00,2015-05-29 19:47:00,
2015-05-29 15:52:00,81.8,69.8,30.05,WSW,245,0.0,4.0,67,0.00,,,0.24,VWS V15.00,2015-05-29 19:52:00,
2015-05-29 15:57:00,82.0,70.0,30.05,WSW,239,0.0,4.0,67,0.00,,,0.24,VWS V15.00,2015-05-29 19:57:00,
2015-05-29 16:02:00,81.8,69.8,30.05,SE,134,0.0,4.0,67,0.00,,,0.24,VWS V15.00,2015-05-29 20:02:00,
2015-05-29 16:12:00,82.2,69.7,30.04,South,175,0.0,4.0,66,0.00,,,0.24,VWS V15.00,2015-05-29 20:12:00,
2015-05-29 16:17:00,82.3,69.8,30.04,SE,126,5.0,8.0,66,0.00,,,0.24,VWS V15.00,2015-05-29 20:17:00,
2015-05-29 16:22:00,82.1,69.6,30.03,WSW,248,0.0,6.0,66,0.00,,,0.24,VWS V15.00,2015-05-29 20:22:00,
2015-05-29 16:27:00,81.8,69.8,30.03,SW,236,0.0,6.0,67,0.00,,,0.24,VWS V15.00,2015-05-29 20:27:00,
2015-05-29 16:32:00,82.1,69.6,30.03,SSW,206,1.0,5.0,66,0.00,,,0.24,VWS V15.00,2015-05-29 20:32:00,
2015-05-29 16:37:00,82.2,70.2,30.03,South,187,0.0,5.0,67,0.00,,,0.24,VWS V15.00,2015-05-29 20:37:00,
2015-05-29 16:42:00,82.3,69.8,30.03,WSW,254,0.0,8.0,66,0.00,,,0.24,VWS V15.00,2015-05-29 20:42:00,
2015-05-29 16:47:00,82.5,70.0,30.03,WSW,247,2.0,8.0,66,0.00,,,0.24,VWS V15.00,2015-05-29 20:47:00,
2015-05-29 16:52:00,82.8,69.8,30.02,SSW,208,3.0,9.0,65,0.00,,,0.24,VWS V15.00,2015-05-29 20:52:00,
2015-05-29 16:57:00,82.7,69.3,30.02,SE,138,4.0,9.0,64,0.00,,,0.24,VWS V15.00,2015-05-29 20:57:00,
2015-05-29 17:02:00,82.6,69.2,30.02,SW,234,0.0,4.0,64,0.00,,,0.24,VWS V15.00,2015-05-29 21:02:00,
2015-05-29 17:12:00,82.5,69.1,30.02,SSW,205,0.0,4.0,64,0.00,,,0.24,VWS V15.00,2015-05-29 21:12:00,
2015-05-29 17:17:00,82.6,68.3,30.02,SSE,166,2.0,12.0,62,0.00,,,0.24,VWS V15.00,2015-05-29 21:17:00,
2015-05-29 17:22:00,82.4,69.5,30.02,SSE,153,1.0,9.0,65,0.00,,,0.24,VWS V15.00,2015-05-29 21:22:00,
2015-05-29 17:27:00,82.3,68.0,30.02,SSW,196,0.0,9.0,62,0.00,,,0.24,VWS V15.00,2015-05-29 21:27:00,
2015-05-29 17:32:00,82.2,69.3,30.02,SE,146,0.0,1.0,65,0.00,,,0.24,VWS V15.00,2015-05-29 21:32:00,
2015-05-29 17:37:00,82.3,69.8,30.02,SSW,202,0.0,4.0,66,0.00,,,0.24,VWS V15.00,2015-05-29 21:37:00,
2015-05-29 17:42:00,82.3,69.4,30.02,SE,138,0.0,9.0,65,0.00,,,0.24,VWS V15.00,2015-05-29 21:42:00,
2015-05-29 17:47:00,81.6,68.2,30.02,SE,140,0.0,9.0,64,0.00,,,0.24,VWS V15.00,2015-05-29 21:47:00,
2015-05-29 17:52:00,81.1,67.8,30.02,SSE,166,0.0,5.0,64,0.00,,,0.24,VWS V15.00,2015-05-29 21:52:00,
2015-05-29 17:57:00,80.7,67.8,30.01,SE,137,0.0,5.0,65,0.00,,,0.24,VWS V15.00,2015-05-29 21:57:00,
2015-05-29 18:02:00,80.3,67.9,30.01,ESE,119,2.0,4.0,66,0.00,,,0.24,VWS V15.00,2015-05-29 22:02:00,
2015-05-29 18:12:00,80.6,68.6,30.01,SE,128,0.0,1.0,67,0.00,,,0.24,VWS V15.00,2015-05-29 22:12:00,
2015-05-29 18:17:00,80.6,68.6,30.01,SE,145,0.0,8.0,67,0.00,,,0.24,VWS V15.00,2015-05-29 22:17:00,
2015-05-29 18:22:00,80.5,68.5,30.01,SW,219,0.0,1.0,67,0.00,,,0.24,VWS V15.00,2015-05-29 22:22:00,
2015-05-29 18:27:00,79.7,69.9,30.01,SW,232,0.0,5.0,72,0.00,,,0.24,VWS V15.00,2015-05-29 22:27:00,
2015-05-29 18:32:00,78.7,70.1,30.01,SW,232,0.0,1.0,75,0.00,,,0.24,VWS V15.00,2015-05-29 22:32:00,
2015-05-29 18:37:00,78.1,70.3,30.01,SW,232,0.0,1.0,77,0.00,,,0.24,VWS V15.00,2015-05-29 22:37:00,
2015-05-29 18:42:00,77.9,70.5,30.01,SW,232,0.0,1.0,78,0.00,,,0.24,VWS V15.00,2015-05-29 22:42:00,
2015-05-29 18:47:00,78.1,70.7,30.00,SW,232,0.0,3.0,78,0.00,,,0.24,VWS V15.00,2015-05-29 22:47:00,
2015-05-29 18:52:00,78.2,70.8,30.00,SW,233,0.0,1.0,78,0.00,,,0.24,VWS V15.00,2015-05-29 22:52:00,
2015-05-29 18:57:00,78.0,71.0,30.00,SW,232,0.0,1.0,79,0.00,,,0.24,VWS V15.00,2015-05-29 22:57:00,
2015-05-29 19:02:00,78.0,70.6,30.00,SW,232,0.0,0.0,78,0.00,,,0.24,VWS V15.00,2015-05-29 23:02:00,
2015-05-29 19:12:00,78.0,70.2,30.01,SW,232,0.0,0.0,77,0.00,,,0.24,VWS V15.00,2015-05-29 23:12:00,
2015-05-29 19:17:00,78.1,70.7,30.00,SW,232,0.0,0.0,78,0.00,,,0.24,VWS V15.00,2015-05-29 23:17:00,
2015-05-29 19:22:00,78.6,71.2,30.00,SW,232,0.0,1.0,78,0.00,,,0.24,VWS V15.00,2015-05-29 23:22:00,
2015-05-29 19:27:00,79.2,71.0,30.01,SW,233,0.0,1.0,76,0.00,,,0.24,VWS V15.00,2015-05-29 23:27:00,
2015-05-29 19:32:00,79.8,71.9,30.00,SW,232,0.0,1.0,77,0.00,,,0.24,VWS V15.00,2015-05-29 23:32:00,
2015-05-29 19:37:00,80.0,71.4,30.00,WSW,241,0.0,2.0,75,0.00,,,0.24,VWS V15.00,2015-05-29 23:37:00,
2015-05-29 19:42:00,80.1,71.1,30.00,WSW,241,0.0,1.0,74,0.00,,,0.24,VWS V15.00,2015-05-29 23:42:00,
2015-05-29 19:47:00,80.3,70.5,30.00,WSW,241,0.0,1.0,72,0.00,,,0.24,VWS V15.00,2015-05-29 23:47:00,
2015-05-29 19:52:00,80.5,70.7,30.00,WSW,241,0.0,0.0,72,0.00,,,0.24,VWS V15.00,2015-05-29 23:52:00,
2015-05-29 19:57:00,80.5,70.7,30.01,WSW,241,0.0,1.0,72,0.00,,,0.24,VWS V15.00,2015-05-29 23:57:00,
2015-05-29 20:02:00,79.7,70.7,30.01,SW,231,0.0,2.0,74,0.02,,,0.26,VWS V15.00,2015-05-30 00:02:00,
2015-05-29 20:12:00,77.5,70.8,30.01,SW,235,1.0,3.0,80,0.03,,,0.27,VWS V15.00,2015-05-30 00:12:00,
2015-05-29 20:17:00,76.3,70.8,30.01,SW,235,0.0,3.0,83,0.04,,,0.28,VWS V15.00,2015-05-30 00:17:00,
2015-05-29 20:22:00,75.7,70.9,30.01,SW,235,0.0,0.0,85,0.04,,,0.28,VWS V15.00,2015-05-30 00:22:00,
2015-05-29 20:27:00,75.1,70.6,30.01,SW,235,0.0,0.0,86,0.04,,,0.28,VWS V15.00,2015-05-30 00:27:00,
2015-05-29 20:32:00,74.5,70.4,30.01,East,96,0.0,4.0,87,0.04,,,0.28,VWS V15.00,2015-05-30 00:32:00,
2015-05-29 20:37:00,74.2,69.4,30.01,ESE,112,0.0,4.0,85,0.04,,,0.28,VWS V15.00,2015-05-30 00:37:00,
2015-05-29 20:42:00,74.0,69.6,30.01,ESE,113,0.0,1.0,86,0.04,,,0.28,VWS V15.00,2015-05-30 00:42:00,
2015-05-29 20:47:00,73.8,69.3,30.01,ESE,113,0.0,1.0,86,0.04,,,0.28,VWS V15.00,2015-05-30 00:47:00,
2015-05-29 20:52:00,73.5,69.4,30.01,ESE,113,0.0,0.0,87,0.04,,,0.28,VWS V15.00,2015-05-30 00:52:00,
2015-05-29 20:57:00,73.1,69.0,30.02,ESE,113,0.0,1.0,87,0.04,,,0.28,VWS V15.00,2015-05-30 00:57:00,
2015-05-29 21:02:00,73.0,68.9,30.02,ESE,113,0.0,0.0,87,0.03,,,0.28,VWS V15.00,2015-05-30 01:02:00,
2015-05-29 21:12:00,72.7,69.3,30.02,ESE,113,0.0,0.0,89,0.02,,,0.28,VWS V15.00,2015-05-30 01:12:00,
2015-05-29 21:17:00,72.6,69.2,30.02,ESE,113,0.0,2.0,89,0.02,,,0.28,VWS V15.00,2015-05-30 01:17:00,
2015-05-29 21:22:00,72.4,69.0,30.02,ESE,113,0.0,1.0,89,0.00,,,0.28,VWS V15.00,2015-05-30 01:22:00,
2015-05-29 21:27:00,72.2,68.8,30.02,ESE,113,0.0,1.0,89,0.00,,,0.28,VWS V15.00,2015-05-30 01:27:00,
2015-05-29 21:32:00,72.1,69.0,30.02,ESE,113,0.0,1.0,90,0.00,,,0.28,VWS V15.00,2015-05-30 01:32:00,
2015-05-29 21:37:00,72.1,69.0,30.02,ESE,113,0.0,4.0,90,0.00,,,0.28,VWS V15.00,2015-05-30 01:37:00,
2015-05-29 21:42:00,72.1,69.0,30.02,ESE,113,0.0,1.0,90,0.00,,,0.28,VWS V15.00,2015-05-30 01:42:00,
2015-05-29 21:47:00,72.3,68.9,30.02,ESE,113,0.0,1.0,89,0.00,,,0.28,VWS V15.00,2015-05-30 01:47:00,
2015-05-29 21:52:00,72.2,68.8,30.02,ESE,113,0.0,2.0,89,0.00,,,0.28,VWS V15.00,2015-05-30 01:52:00,
2015-05-29 21:57:00,72.2,69.1,30.02,ESE,113,0.0,2.0,90,0.00,,,0.28,VWS V15.00,2015-05-30 01:57:00,
2015-05-29 22:02:00,72.2,69.1,30.03,ESE,113,0.0,0.0,90,0.00,,,0.28,VWS V15.00,2015-05-30 02:02:00,
2015-05-29 22:12:00,72.1,69.0,30.03,ESE,115,0.0,1.0,90,0.00,,,0.28,VWS V15.00,2015-05-30 02:12:00,
2015-05-29 22:17:00,72.4,69.0,30.03,ESE,115,0.0,1.0,89,0.00,,,0.28,VWS V15.00,2015-05-30 02:17:00,
2015-05-29 22:22:00,72.5,69.1,30.04,ESE,115,0.0,0.0,89,0.00,,,0.28,VWS V15.00,2015-05-30 02:22:00,
2015-05-29 22:27:00,72.6,69.2,30.04,ESE,115,0.0,0.0,89,0.00,,,0.28,VWS V15.00,2015-05-30 02:27:00,
2015-05-29 22:32:00,72.7,69.3,30.04,ESE,115,0.0,0.0,89,0.00,,,0.28,VWS V15.00,2015-05-30 02:32:00,
2015-05-29 22:37:00,72.7,69.3,30.04,ESE,115,0.0,1.0,89,0.00,,,0.28,VWS V15.00,2015-05-30 02:37:00,
2015-05-29 22:42:00,72.8,69.4,30.03,ESE,115,1.0,1.0,89,0.00,,,0.28,VWS V15.00,2015-05-30 02:42:00,
2015-05-29 22:47:00,72.7,69.3,30.03,ESE,115,0.0,1.0,89,0.00,,,0.28,VWS V15.00,2015-05-30 02:47:00,
2015-05-29 22:52:00,72.7,69.3,30.03,ESE,115,0.0,1.0,89,0.00,,,0.28,VWS V15.00,2015-05-30 02:52:00,
2015-05-29 22:57:00,72.6,69.2,30.03,ESE,115,0.0,4.0,89,0.00,,,0.28,VWS V15.00,2015-05-30 02:57:00,
2015-05-29 23:02:00,72.7,69.3,30.03,ESE,115,0.0,0.0,89,0.00,,,0.28,VWS V15.00,2015-05-30 03:02:00,
2015-05-29 23:12:00,72.8,69.0,30.03,ESE,115,0.0,0.0,88,0.00,,,0.28,VWS V15.00,2015-05-30 03:12:00,
2015-05-29 23:17:00,72.8,69.0,30.03,ESE,115,0.0,0.0,88,0.00,,,0.28,VWS V15.00,2015-05-30 03:17:00,
2015-05-29 23:22:00,72.8,69.0,30.03,ESE,115,0.0,0.0,88,0.00,,,0.28,VWS V15.00,2015-05-30 03:22:00,
2015-05-29 23:27:00,72.8,69.0,30.03,ESE,115,0.0,0.0,88,0.00,,,0.28,VWS V15.00,2015-05-30 03:27:00,
2015-05-29 23:32:00,72.7,68.9,30.03,ESE,115,0.0,0.0,88,0.00,,,0.28,VWS V15.00,2015-05-30 03:32:00,
2015-05-29 23:37:00,72.6,68.8,30.03,ESE,115,0.0,1.0,88,0.00,,,0.28,VWS V15.00,2015-05-30 03:37:00,
2015-05-29 23:42:00,72.5,68.8,30.03,ESE,115,0.0,1.0,88,0.00,,,0.28,VWS V15.00,2015-05-30 03:42:00,
2015-05-29 23:47:00,72.4,68.7,30.03,ESE,115,0.0,1.0,88,0.00,,,0.28,VWS V15.00,2015-05-30 03:47:00,